createdAt,value
2022-12-05T00:01:58.405Z,23.93
2022-12-05T00:04:26.247Z,23.43
2022-12-05T00:06:53.812Z,22.60
2022-12-05T00:09:22.531Z,22.57
2022-12-05T00:11:50.297Z,22.23
2022-12-05T00:14:17.791Z,22.77
2022-12-05T00:16:45.645Z,22.07
2022-12-05T00:19:14.861Z,22.13
2022-12-05T00:21:42.542Z,22.90
2022-12-05T00:24:13.457Z,21.27
2022-12-05T00:26:42.382Z,22.43
2022-12-05T00:29:09.929Z,21.63
2022-12-05T00:31:37.436Z,23.43
2022-12-05T00:34:04.961Z,21.83
2022-12-05T00:36:33.963Z,21.27
2022-12-05T00:39:03.226Z,21.70
2022-12-05T00:41:31.070Z,21.33
2022-12-05T00:44:01.502Z,21.77
2022-12-05T00:46:31.957Z,21.07
2022-12-05T00:49:00.762Z,21.33
2022-12-05T00:51:30.838Z,21.30
2022-12-05T00:53:59.567Z,21.97
2022-12-05T00:56:28.216Z,21.50
2022-12-05T00:58:57.127Z,21.23
2022-12-05T01:01:27.476Z,22.07
2022-12-05T01:03:56.635Z,21.70
2022-12-05T01:06:25.182Z,21.10
2022-12-05T01:08:54.228Z,22.70
2022-12-05T01:11:21.748Z,22.93
2022-12-05T01:13:49.199Z,22.10
2022-12-05T01:16:17.754Z,22.43
2022-12-05T01:18:46.690Z,22.03
2022-12-05T01:21:14.490Z,22.77
2022-12-05T01:23:41.991Z,21.40
2022-12-05T01:26:15.271Z,23.10
2022-12-05T01:28:43.381Z,23.13
2022-12-05T01:31:17.249Z,23.30
2022-12-05T01:33:46.040Z,22.93
2022-12-05T01:36:13.876Z,23.37
2022-12-05T01:38:42.433Z,23.43
2022-12-05T01:41:13.511Z,22.77
2022-12-05T01:43:58.064Z,23.67
2022-12-05T01:46:26.446Z,23.30
2022-12-05T01:49:01.091Z,24.37
2022-12-05T01:51:28.704Z,24.07
2022-12-05T01:53:56.200Z,25.97
2022-12-05T01:56:23.699Z,25.83
2022-12-05T01:58:53.036Z,25.47
2022-12-05T02:01:21.409Z,26.00
2022-12-05T02:03:51.641Z,26.10
2022-12-05T02:06:20.599Z,28.13
2022-12-05T02:08:48.108Z,27.30
2022-12-05T02:11:15.734Z,26.37
2022-12-05T02:14:06.436Z,27.53
2022-12-05T02:16:48.533Z,26.50
2022-12-05T02:19:38.336Z,25.97
2022-12-05T02:22:24.046Z,26.47
2022-12-05T02:24:57.939Z,26.10
2022-12-05T02:27:47.919Z,25.10
2022-12-05T02:30:17.485Z,25.20
2022-12-05T02:32:52.430Z,26.33
2022-12-05T02:35:38.674Z,26.83
2022-12-05T02:38:15.938Z,25.63
2022-12-05T02:40:49.831Z,26.23
2022-12-05T02:43:20.152Z,25.70
2022-12-05T02:45:50.801Z,24.97
2022-12-05T02:48:19.044Z,25.27
2022-12-05T02:50:48.587Z,25.50
2022-12-05T02:53:17.472Z,25.37
2022-12-05T02:55:45.846Z,25.50
2022-12-05T02:58:15.917Z,24.80
2022-12-05T03:00:45.569Z,24.33
2022-12-05T03:03:16.626Z,25.90
2022-12-05T03:05:48.949Z,24.10
2022-12-05T03:08:19.360Z,23.90
2022-12-05T03:10:47.910Z,25.17
2022-12-05T03:13:17.532Z,24.03
2022-12-05T03:15:49.332Z,24.30
2022-12-05T03:18:21.547Z,24.70
2022-12-05T03:20:50.870Z,25.80
2022-12-05T03:23:21.662Z,25.37
2022-12-05T03:25:53.351Z,24.53
2022-12-05T03:28:25.705Z,24.97
2022-12-05T03:30:54.767Z,25.70
2022-12-05T03:33:25.189Z,25.20
2022-12-05T03:35:59.960Z,26.13
2022-12-05T03:38:32.208Z,25.33
2022-12-05T03:41:07.013Z,25.00
2022-12-05T03:43:39.150Z,26.07
2022-12-05T03:46:08.059Z,25.10
2022-12-05T03:48:38.928Z,25.33
2022-12-05T03:51:08.588Z,25.53
2022-12-05T03:53:38.971Z,25.03
2022-12-05T03:56:10.747Z,25.10
2022-12-05T03:58:42.863Z,25.37
2022-12-05T04:01:11.687Z,25.20
2022-12-05T04:03:43.333Z,24.40
2022-12-05T04:06:17.133Z,25.57
2022-12-05T04:08:48.862Z,24.97
2022-12-05T04:11:18.616Z,24.70
2022-12-05T04:13:48.761Z,25.70
2022-12-05T04:16:55.716Z,25.90
2022-12-05T04:19:27.715Z,25.37
2022-12-05T04:21:55.938Z,25.90
2022-12-05T04:24:49.482Z,24.93
2022-12-05T04:27:24.370Z,25.33
2022-12-05T04:29:59.533Z,24.97
2022-12-05T04:32:28.860Z,25.30
2022-12-05T04:35:00.030Z,25.93
2022-12-05T04:37:30.781Z,25.00
2022-12-05T04:40:00.957Z,26.17
2022-12-05T04:42:30.798Z,24.77
2022-12-05T04:45:01.037Z,25.20
2022-12-05T04:47:31.732Z,25.77
2022-12-05T04:50:01.474Z,25.13
2022-12-05T04:52:29.931Z,26.20
2022-12-05T04:55:03.249Z,25.97
2022-12-05T04:57:35.011Z,27.10
2022-12-05T05:00:02.485Z,27.07
2022-12-05T05:02:32.776Z,27.33
2022-12-05T05:05:02.742Z,27.17
2022-12-05T05:07:30.342Z,26.90
2022-12-05T05:09:58.395Z,26.83
2022-12-05T05:12:26.134Z,28.03
2022-12-05T05:14:53.555Z,28.07
2022-12-05T05:17:21.000Z,26.90
2022-12-05T05:19:48.486Z,25.90
2022-12-05T05:22:17.273Z,26.57
2022-12-05T05:24:44.682Z,27.20
2022-12-05T05:27:12.106Z,28.27
2022-12-05T05:29:39.615Z,28.40
2022-12-05T05:32:07.174Z,29.33
2022-12-05T05:34:34.854Z,28.57
2022-12-05T05:37:02.323Z,28.33
2022-12-05T05:39:31.106Z,27.67
2022-12-05T05:41:58.597Z,27.53
2022-12-05T05:44:26.055Z,27.07
2022-12-05T05:46:54.462Z,26.67
2022-12-05T05:49:21.908Z,27.73
2022-12-05T05:51:49.356Z,27.33
2022-12-05T05:54:16.811Z,27.10
2022-12-05T05:56:45.620Z,28.20
2022-12-05T05:59:13.207Z,28.40
2022-12-05T06:01:40.674Z,28.43
2022-12-05T06:04:08.543Z,27.70
2022-12-05T06:06:36.222Z,28.43
2022-12-05T06:09:03.636Z,27.30
2022-12-05T06:11:31.059Z,25.97
2022-12-05T06:14:01.989Z,25.77
2022-12-05T06:16:30.154Z,26.73
2022-12-05T06:18:58.456Z,26.23
2022-12-05T06:21:25.882Z,26.33
2022-12-05T06:23:53.831Z,27.60
2022-12-05T06:26:22.762Z,26.80
2022-12-05T06:28:50.403Z,27.47
2022-12-05T06:31:21.297Z,27.63
2022-12-05T06:33:49.176Z,26.47
2022-12-05T06:36:18.567Z,28.53
2022-12-05T06:38:45.983Z,30.53
2022-12-05T06:41:16.010Z,30.10
2022-12-05T06:43:43.599Z,34.67
2022-12-05T06:46:13.003Z,43.47
2022-12-05T06:48:41.854Z,41.80
2022-12-05T06:51:10.823Z,44.43
2022-12-05T06:53:38.416Z,35.20
2022-12-05T06:56:08.399Z,32.20
2022-12-05T06:58:35.899Z,29.80
2022-12-05T07:01:21.342Z,29.10
2022-12-05T07:03:50.742Z,28.30
2022-12-05T07:06:18.513Z,29.30
2022-12-05T07:08:45.963Z,29.30
2022-12-05T07:11:13.359Z,29.60
2022-12-05T07:13:40.840Z,28.07
2022-12-05T07:16:08.742Z,27.67
2022-12-05T07:18:36.697Z,26.90
2022-12-05T07:21:12.301Z,26.97
2022-12-05T07:23:40.463Z,26.23
2022-12-05T07:26:08.879Z,26.00
2022-12-05T07:28:36.347Z,26.00
2022-12-05T07:31:05.572Z,25.27
2022-12-05T07:33:33.171Z,27.70
2022-12-05T07:36:01.443Z,27.30
2022-12-05T07:38:30.459Z,27.60
2022-12-05T07:40:58.240Z,26.17
2022-12-05T07:43:25.869Z,27.77
2022-12-05T07:45:53.423Z,27.30
2022-12-05T07:48:21.305Z,27.03
2022-12-05T07:50:48.719Z,27.47
2022-12-05T07:53:16.106Z,26.17
2022-12-05T07:55:44.851Z,28.27
2022-12-05T07:58:12.324Z,27.23
2022-12-05T08:00:39.747Z,28.47
2022-12-05T08:03:07.169Z,28.17
2022-12-05T08:05:35.012Z,28.07
2022-12-05T08:08:02.503Z,26.77
2022-12-05T08:10:30.138Z,30.23
2022-12-05T08:12:58.899Z,30.33
2022-12-05T08:15:26.322Z,29.80
2022-12-05T08:17:53.740Z,29.87
2022-12-05T08:20:21.179Z,29.00
2022-12-05T08:22:48.653Z,27.80
2022-12-05T08:25:16.144Z,28.30
2022-12-05T08:27:43.656Z,28.57
2022-12-05T08:30:12.616Z,28.77
2022-12-05T08:32:41.762Z,27.50
2022-12-05T08:35:10.042Z,28.50
2022-12-05T08:37:37.650Z,27.57
2022-12-05T08:40:06.400Z,27.63
2022-12-05T08:42:34.370Z,28.53
2022-12-05T08:45:02.086Z,29.30
2022-12-05T08:47:32.465Z,29.23
2022-12-05T08:50:00.313Z,27.97
2022-12-05T08:52:28.075Z,28.40
2022-12-05T08:54:55.941Z,27.93
2022-12-05T08:57:23.671Z,29.67
2022-12-05T08:59:51.097Z,28.20
2022-12-05T09:02:18.618Z,28.93
2022-12-05T09:04:53.852Z,29.33
2022-12-05T09:07:21.806Z,26.60
2022-12-05T09:09:49.199Z,25.97
2022-12-05T09:12:16.631Z,26.17
2022-12-05T09:14:44.110Z,29.10
2022-12-05T09:17:11.601Z,28.47
2022-12-05T09:19:39.054Z,29.07
2022-12-05T09:22:07.776Z,29.57
2022-12-05T09:24:35.234Z,27.77
2022-12-05T09:27:02.605Z,28.07
2022-12-05T09:29:32.460Z,27.90
2022-12-05T09:31:59.887Z,27.87
2022-12-05T09:34:27.447Z,28.43
2022-12-05T09:37:10.149Z,27.47
2022-12-05T09:39:45.695Z,27.43
2022-12-05T09:42:24.286Z,27.77
2022-12-05T09:45:05.859Z,27.60
2022-12-05T09:47:44.258Z,25.80
2022-12-05T09:50:18.664Z,26.30
2022-12-05T09:52:54.722Z,27.27
2022-12-05T09:55:23.515Z,26.00
2022-12-05T09:57:53.399Z,26.83
2022-12-05T10:00:21.437Z,26.13
2022-12-05T10:02:55.261Z,26.63
2022-12-05T10:05:26.790Z,26.77
2022-12-05T10:08:00.231Z,26.50
2022-12-05T10:10:38.535Z,26.27
2022-12-05T10:13:16.765Z,26.13
2022-12-05T10:15:48.416Z,25.20
2022-12-05T10:18:27.994Z,25.97
2022-12-05T10:20:58.860Z,25.37
2022-12-05T10:23:56.033Z,26.13
2022-12-05T10:26:18.509Z,25.73
2022-12-05T10:28:50.577Z,25.97
2022-12-05T10:31:20.050Z,27.73
2022-12-05T10:36:21.658Z,28.57
2022-12-05T10:38:50.112Z,26.57
2022-12-05T10:41:18.278Z,26.33
2022-12-05T10:43:49.076Z,27.07
2022-12-05T10:46:18.109Z,26.67
2022-12-05T10:48:45.628Z,28.37
2022-12-05T10:51:15.495Z,27.60
2022-12-05T10:53:49.329Z,26.03
2022-12-05T10:56:39.275Z,25.70
2022-12-05T10:59:07.562Z,26.63
2022-12-05T11:01:38.274Z,26.43
2022-12-05T11:04:13.844Z,26.77
2022-12-05T11:06:57.175Z,26.53
2022-12-05T11:09:34.492Z,26.73
2022-12-05T11:12:08.016Z,26.07
2022-12-05T11:14:54.516Z,26.73
2022-12-05T11:17:32.342Z,24.53
2022-12-05T11:19:59.959Z,24.43
2022-12-05T11:22:35.300Z,25.20
2022-12-05T11:25:25.095Z,25.33
2022-12-05T11:27:55.978Z,26.47
2022-12-05T11:30:29.011Z,25.90
2022-12-05T11:33:12.517Z,25.10
2022-12-05T11:35:40.112Z,26.57
2022-12-05T11:38:07.955Z,26.50
2022-12-05T11:40:45.039Z,24.90
2022-12-05T11:43:27.180Z,25.63
2022-12-05T11:46:00.419Z,25.83
2022-12-05T11:48:51.221Z,26.47
2022-12-05T11:51:30.996Z,26.10
2022-12-05T11:54:41.759Z,26.57
2022-12-05T11:57:12.506Z,26.27
2022-12-05T11:59:58.125Z,26.60
2022-12-05T12:02:33.955Z,25.20
2022-12-05T12:05:04.595Z,24.70
2022-12-05T12:07:44.793Z,25.47
2022-12-05T12:10:21.520Z,25.90
2022-12-05T12:12:57.777Z,25.57
2022-12-05T12:15:43.139Z,25.73
2022-12-05T12:18:40.123Z,25.33
2022-12-05T12:21:38.232Z,25.77
2022-12-05T12:24:31.113Z,25.90
2022-12-05T12:27:30.119Z,26.07
2022-12-05T12:30:24.110Z,26.27
2022-12-05T12:33:12.180Z,26.07
2022-12-05T12:36:06.107Z,27.20
2022-12-05T12:39:15.167Z,26.30
2022-12-05T12:42:12.119Z,25.03
2022-12-05T12:45:27.181Z,26.20
2022-12-05T12:48:32.102Z,25.63
2022-12-05T12:51:15.199Z,25.27
2022-12-05T12:54:12.095Z,26.17
2022-12-05T12:57:12.116Z,26.40
2022-12-05T13:00:03.092Z,27.70
2022-12-05T13:02:55.144Z,27.80
2022-12-05T13:05:40.450Z,27.33
2022-12-05T13:08:31.088Z,27.33
2022-12-05T13:11:14.771Z,30.03
2022-12-05T13:14:05.100Z,28.30
2022-12-05T13:16:56.157Z,29.07
2022-12-05T13:19:40.698Z,28.57
2022-12-05T13:22:31.123Z,27.70
2022-12-05T13:25:00.873Z,27.10
2022-12-05T13:27:42.128Z,27.23
2022-12-05T13:30:27.998Z,26.30
2022-12-05T13:33:18.110Z,27.47
2022-12-05T13:36:26.111Z,27.30
2022-12-05T13:39:46.134Z,28.20
2022-12-05T13:42:37.175Z,27.83
2022-12-05T13:45:20.015Z,27.23
2022-12-05T13:47:56.932Z,27.40
2022-12-05T13:50:34.812Z,29.00
2022-12-05T13:53:05.526Z,27.60
2022-12-05T13:55:36.845Z,27.03
2022-12-05T13:58:05.242Z,26.80
2022-12-05T14:00:36.971Z,26.43
2022-12-05T14:03:17.015Z,26.77
2022-12-05T14:05:46.846Z,26.50
2022-12-05T14:08:56.441Z,26.97
2022-12-05T14:11:25.570Z,25.07
2022-12-05T14:13:53.576Z,25.13
2022-12-05T14:16:49.490Z,25.77
2022-12-05T14:19:46.086Z,26.10
2022-12-05T14:22:24.114Z,25.13
2022-12-05T14:24:56.343Z,25.53
2022-12-05T14:27:32.108Z,25.73
2022-12-05T14:30:04.646Z,25.37
2022-12-05T14:32:33.686Z,26.20
2022-12-05T14:35:05.726Z,27.00
2022-12-05T14:37:34.992Z,26.93
2022-12-05T14:40:04.758Z,26.77
2022-12-05T14:42:38.105Z,26.67
2022-12-05T14:45:24.709Z,27.17
2022-12-05T14:47:54.405Z,26.70
2022-12-05T14:50:26.036Z,26.83
2022-12-05T14:53:27.145Z,26.43
2022-12-05T14:55:56.399Z,26.53
2022-12-05T14:58:33.964Z,26.63
2022-12-05T15:01:05.115Z,27.47
2022-12-05T15:03:35.207Z,26.17
2022-12-05T15:06:05.195Z,26.97
2022-12-05T15:08:37.073Z,26.50
2022-12-05T15:11:05.432Z,27.77
2022-12-05T15:13:34.648Z,28.23
2022-12-05T15:16:06.827Z,26.67
2022-12-05T15:18:37.800Z,27.67
2022-12-05T15:21:08.969Z,26.40
2022-12-05T15:23:44.477Z,26.23
2022-12-05T15:26:45.588Z,25.53
2022-12-05T15:29:09.110Z,27.13
2022-12-05T15:31:39.277Z,25.53
2022-12-05T15:34:13.935Z,27.07
2022-12-05T15:36:46.727Z,26.87
2022-12-05T15:39:23.485Z,26.30
2022-12-05T15:41:51.800Z,26.97
2022-12-05T15:44:26.738Z,26.23
2022-12-05T15:46:56.580Z,24.93
2022-12-05T15:49:28.015Z,24.83
2022-12-05T15:51:59.735Z,24.20
2022-12-05T15:54:31.171Z,23.17
2022-12-05T15:57:03.458Z,23.70
2022-12-05T15:59:37.117Z,23.03
2022-12-05T16:02:08.380Z,23.43
2022-12-05T16:04:41.473Z,22.60
2022-12-05T16:07:10.780Z,22.47
2022-12-05T16:09:41.732Z,22.80
2022-12-05T16:12:20.467Z,22.40
2022-12-05T16:14:59.603Z,22.97
2022-12-05T16:17:29.983Z,22.13
2022-12-05T16:20:11.492Z,22.60
2022-12-05T16:22:44.367Z,23.23
2022-12-05T16:25:15.634Z,23.73
2022-12-05T16:27:43.959Z,24.97
2022-12-05T16:30:20.059Z,22.70
2022-12-05T16:32:49.006Z,22.50
2022-12-05T16:35:34.367Z,22.40
2022-12-05T16:38:07.023Z,22.93
2022-12-05T16:40:34.480Z,22.23
2022-12-05T16:43:03.119Z,22.83
2022-12-05T16:45:43.189Z,22.73
2022-12-05T16:48:19.990Z,22.70
2022-12-05T16:50:47.749Z,22.20
2022-12-05T16:53:20.124Z,22.27
2022-12-05T16:55:47.926Z,22.37
2022-12-05T16:58:21.311Z,22.67
2022-12-05T17:00:50.610Z,23.73
2022-12-05T17:03:34.104Z,21.87
2022-12-05T17:06:05.564Z,22.93
2022-12-05T17:08:33.026Z,22.80
2022-12-05T17:11:01.757Z,22.43
2022-12-05T17:13:29.276Z,22.40
2022-12-05T17:15:58.093Z,21.87
2022-12-05T17:18:31.191Z,21.83
2022-12-05T17:21:01.212Z,21.53
2022-12-05T17:23:28.808Z,21.07
2022-12-05T17:25:57.880Z,22.00
2022-12-05T17:28:26.327Z,21.13
2022-12-05T17:30:53.734Z,20.93
2022-12-05T17:33:22.493Z,21.20
2022-12-05T17:35:51.813Z,20.30
2022-12-05T17:38:20.466Z,19.17
2022-12-05T17:40:48.217Z,20.70
2022-12-05T17:43:19.953Z,20.70
2022-12-05T17:45:50.648Z,20.60
2022-12-05T17:48:18.096Z,22.07
2022-12-05T17:50:48.236Z,22.93
2022-12-05T17:53:17.360Z,21.07
2022-12-05T17:55:47.792Z,21.93
2022-12-05T17:58:15.982Z,22.87
2022-12-05T18:00:44.181Z,23.00
2022-12-05T18:03:14.020Z,25.80
2022-12-05T18:05:41.581Z,24.13
2022-12-05T18:08:10.587Z,22.37
2022-12-05T18:10:42.598Z,24.03
2022-12-05T18:13:10.072Z,23.40
2022-12-05T18:18:27.194Z,22.90
2022-12-05T18:21:04.418Z,23.17
2022-12-05T18:23:33.331Z,21.77
2022-12-05T18:26:01.285Z,21.83
2022-12-05T18:28:28.756Z,21.90
2022-12-05T18:31:07.468Z,22.40
2022-12-05T18:33:35.151Z,22.50
2022-12-05T18:36:07.939Z,22.77
2022-12-05T18:38:37.194Z,23.20
2022-12-05T18:41:06.048Z,22.20
2022-12-05T18:43:34.656Z,23.03
2022-12-05T18:46:03.560Z,23.87
2022-12-05T18:48:39.299Z,23.60
2022-12-05T18:51:10.353Z,23.37
2022-12-05T18:53:39.546Z,23.57
2022-12-05T18:56:24.972Z,23.97
2022-12-05T18:58:57.690Z,22.70
2022-12-05T19:01:26.252Z,23.07
2022-12-05T19:03:56.422Z,23.37
2022-12-05T19:06:25.124Z,22.47
2022-12-05T19:08:55.975Z,23.13
2022-12-05T19:11:24.122Z,23.63
2022-12-05T19:13:55.311Z,24.07
2022-12-05T19:16:23.043Z,25.53
2022-12-05T19:18:53.852Z,25.97
2022-12-05T19:21:21.611Z,23.77
2022-12-05T19:23:49.089Z,23.93
2022-12-05T19:26:17.845Z,25.33
2022-12-05T19:28:45.367Z,25.47
2022-12-05T19:31:15.138Z,25.63
2022-12-05T19:33:43.774Z,25.77
2022-12-05T19:36:13.071Z,25.67
2022-12-05T19:38:41.394Z,24.67
2022-12-05T19:41:10.677Z,23.60
2022-12-05T19:43:39.777Z,24.07
2022-12-05T19:46:09.190Z,23.90
2022-12-05T19:48:53.061Z,24.27
2022-12-05T19:51:20.806Z,22.77
2022-12-05T19:53:49.891Z,23.53
2022-12-05T19:56:19.760Z,23.40
2022-12-05T19:58:49.641Z,24.43
2022-12-05T20:01:18.872Z,24.30
2022-12-05T20:03:48.916Z,25.00
2022-12-05T20:06:16.516Z,24.47
2022-12-05T20:08:43.959Z,25.53
2022-12-05T20:11:13.332Z,25.10
2022-12-05T20:13:48.823Z,25.13
2022-12-05T20:16:21.196Z,25.17
2022-12-05T20:18:49.450Z,27.13
2022-12-05T20:21:18.327Z,26.20
2022-12-05T20:23:45.877Z,27.37
2022-12-05T20:26:15.153Z,25.40
2022-12-05T20:28:42.723Z,24.30
2022-12-05T20:31:12.358Z,24.80
2022-12-05T20:33:41.852Z,26.10
2022-12-05T20:36:11.095Z,26.40
2022-12-05T20:38:39.190Z,26.03
2022-12-05T20:41:10.941Z,25.07
2022-12-05T20:43:38.934Z,23.23
2022-12-05T20:46:08.069Z,24.67
2022-12-05T20:48:36.054Z,24.87
2022-12-05T20:51:09.207Z,24.70
2022-12-05T20:53:38.669Z,24.50
2022-12-05T20:56:06.871Z,24.90
2022-12-05T20:58:34.324Z,24.33
2022-12-05T21:01:02.776Z,23.53
2022-12-05T21:03:30.307Z,24.43
2022-12-05T21:05:57.774Z,23.80
2022-12-05T21:08:26.531Z,23.77
2022-12-05T21:10:54.016Z,24.40
2022-12-05T21:13:21.452Z,23.47
2022-12-05T21:15:48.958Z,24.60
2022-12-05T21:18:19.461Z,25.53
2022-12-05T21:20:56.459Z,24.97
2022-12-05T21:23:23.898Z,23.33
2022-12-05T21:25:53.104Z,23.73
2022-12-05T21:28:20.842Z,24.60
2022-12-05T21:30:48.281Z,24.00
2022-12-05T21:33:15.766Z,22.67
2022-12-05T21:35:43.159Z,23.73
2022-12-05T21:38:10.771Z,23.73
2022-12-05T21:40:38.184Z,23.50
2022-12-05T21:43:06.958Z,23.33
2022-12-05T21:45:37.646Z,25.10
2022-12-05T21:48:09.134Z,24.57
2022-12-05T21:50:38.275Z,24.00
2022-12-05T21:53:05.711Z,23.87
2022-12-05T21:55:33.164Z,23.50
2022-12-05T21:58:00.602Z,23.77
2022-12-05T22:00:29.350Z,24.53
2022-12-05T22:02:57.340Z,25.50
2022-12-05T22:05:24.752Z,26.23
2022-12-05T22:07:52.247Z,25.13
2022-12-05T22:10:19.742Z,25.90
2022-12-05T22:12:47.288Z,24.80
2022-12-05T22:15:14.776Z,24.90
2022-12-05T22:17:43.570Z,23.70
2022-12-05T22:20:11.160Z,23.17
2022-12-05T22:22:38.585Z,22.57
2022-12-05T22:25:06.627Z,22.43
2022-12-05T22:27:34.071Z,23.30
2022-12-05T22:30:01.760Z,22.63
2022-12-05T22:32:29.610Z,23.33
2022-12-05T22:35:03.441Z,23.43
2022-12-05T22:37:31.588Z,23.07
2022-12-05T22:39:59.449Z,23.37
2022-12-05T22:42:27.605Z,24.03
2022-12-05T22:44:55.221Z,23.37
2022-12-05T22:47:23.047Z,22.40
2022-12-05T22:49:50.562Z,22.77
2022-12-05T22:52:19.378Z,22.73
2022-12-05T22:54:46.843Z,23.67
2022-12-05T22:57:14.303Z,24.37
2022-12-05T22:59:41.805Z,23.77
2022-12-05T23:02:11.674Z,23.77
2022-12-05T23:04:39.132Z,23.10
2022-12-05T23:07:06.571Z,22.83
2022-12-05T23:09:35.408Z,22.73
2022-12-05T23:12:04.712Z,22.10
2022-12-05T23:14:32.164Z,24.13
2022-12-05T23:16:59.575Z,23.93
2022-12-05T23:19:27.123Z,23.80
2022-12-05T23:21:54.560Z,23.27
2022-12-05T23:24:21.980Z,23.70
2022-12-05T23:26:52.207Z,23.07
2022-12-05T23:29:19.874Z,22.33
2022-12-05T23:31:47.339Z,21.13
2022-12-05T23:34:14.847Z,22.23
2022-12-05T23:36:42.304Z,22.60
2022-12-05T23:39:09.963Z,23.43
2022-12-05T23:41:37.831Z,22.93
2022-12-05T23:44:06.698Z,23.30
2022-12-05T23:46:34.231Z,24.50
2022-12-05T23:49:02.047Z,24.37
2022-12-05T23:51:30.883Z,23.20
2022-12-05T23:53:59.984Z,24.43
2022-12-05T23:56:29.243Z,23.53
2022-12-05T23:58:57.147Z,25.07
